sensor_id;sensor_type;location;lat;lon;timestamp;pressure;altitude;pressure_sealevel;temperature;humidity
70011;BME280;59543;37.950;-122.338;2023-05-21T00:01:14;101657.66;;;18.83;62.21
70011;BME280;59543;37.950;-122.338;2023-05-21T00:03:42;101646.03;;;18.35;63.45
70011;BME280;59543;37.950;-122.338;2023-05-21T00:06:11;101651.44;;;18.75;64.00
70011;BME280;59543;37.950;-122.338;2023-05-21T00:08:41;101656.97;;;18.89;62.08
70011;BME280;59543;37.950;-122.338;2023-05-21T00:11:08;101658.66;;;18.59;62.21
70011;BME280;59543;37.950;-122.338;2023-05-21T00:13:34;101664.19;;;18.43;62.94
70011;BME280;59543;37.950;-122.338;2023-05-21T00:16:00;101660.78;;;18.72;63.26
70011;BME280;59543;37.950;-122.338;2023-05-21T00:18:27;101656.28;;;18.25;63.72
70011;BME280;59543;37.950;-122.338;2023-05-21T00:20:53;101652.63;;;18.01;64.20
70011;BME280;59543;37.950;-122.338;2023-05-21T00:23:19;101645.84;;;17.97;64.04
70011;BME280;59543;37.950;-122.338;2023-05-21T00:25:46;101650.56;;;18.12;64.83
70011;BME280;59543;37.950;-122.338;2023-05-21T00:28:12;101648.28;;;17.84;65.18
70011;BME280;59543;37.950;-122.338;2023-05-21T00:30:38;101648.69;;;18.12;65.54
70011;BME280;59543;37.950;-122.338;2023-05-21T00:33:05;101646.38;;;17.76;66.01
70011;BME280;59543;37.950;-122.338;2023-05-21T00:35:32;101643.81;;;17.75;67.46
70011;BME280;59543;37.950;-122.338;2023-05-21T00:37:58;101645.16;;;17.95;65.30
70011;BME280;59543;37.950;-122.338;2023-05-21T00:40:24;101642.91;;;18.07;65.17
70011;BME280;59543;37.950;-122.338;2023-05-21T00:42:52;101637.66;;;17.97;65.37
70011;BME280;59543;37.950;-122.338;2023-05-21T00:45:18;101633.78;;;17.92;65.12
70011;BME280;59543;37.950;-122.338;2023-05-21T00:47:44;101626.44;;;17.92;65.02
70011;BME280;59543;37.950;-122.338;2023-05-21T00:50:13;101638.44;;;17.58;65.79
70011;BME280;59543;37.950;-122.338;2023-05-21T00:52:40;101626.06;;;18.03;66.11
70011;BME280;59543;37.950;-122.338;2023-05-21T00:55:08;101641.84;;;17.60;65.48
70011;BME280;59543;37.950;-122.338;2023-05-21T00:57:35;101641.84;;;17.52;66.17
70011;BME280;59543;37.950;-122.338;2023-05-21T01:00:05;101631.09;;;17.67;66.24
70011;BME280;59543;37.950;-122.338;2023-05-21T01:02:35;101637.44;;;17.43;66.47
70011;BME280;59543;37.950;-122.338;2023-05-21T01:05:03;101647.97;;;17.38;67.75
70011;BME280;59543;37.950;-122.338;2023-05-21T01:07:37;101648.13;;;17.69;66.93
70011;BME280;59543;37.950;-122.338;2023-05-21T01:10:06;101640.50;;;17.40;66.75
70011;BME280;59543;37.950;-122.338;2023-05-21T01:12:34;101644.94;;;17.17;67.39
70011;BME280;59543;37.950;-122.338;2023-05-21T01:15:03;101643.41;;;17.22;67.64
70011;BME280;59543;37.950;-122.338;2023-05-21T01:17:30;101641.19;;;17.42;67.32
70011;BME280;59543;37.950;-122.338;2023-05-21T01:19:59;101648.31;;;16.78;68.92
70011;BME280;59543;37.950;-122.338;2023-05-21T01:22:28;101653.59;;;16.79;69.71
70011;BME280;59543;37.950;-122.338;2023-05-21T01:24:57;101645.59;;;16.78;70.09
70011;BME280;59543;37.950;-122.338;2023-05-21T01:27:23;101647.31;;;16.95;69.56
70011;BME280;59543;37.950;-122.338;2023-05-21T01:29:49;101642.72;;;17.36;69.66
70011;BME280;59543;37.950;-122.338;2023-05-21T01:32:55;101657.50;;;17.18;68.28
70011;BME280;59543;37.950;-122.338;2023-05-21T01:35:35;101652.94;;;17.10;68.80
70011;BME280;59543;37.950;-122.338;2023-05-21T01:38:36;101652.75;;;17.11;69.15
70011;BME280;59543;37.950;-122.338;2023-05-21T01:41:10;101652.41;;;16.98;70.20
70011;BME280;59543;37.950;-122.338;2023-05-21T01:43:42;101660.22;;;16.93;69.24
70011;BME280;59543;37.950;-122.338;2023-05-21T01:46:11;101652.72;;;16.87;69.21
70011;BME280;59543;37.950;-122.338;2023-05-21T01:48:38;101659.03;;;17.04;69.52
70011;BME280;59543;37.950;-122.338;2023-05-21T01:51:06;101652.84;;;16.61;70.45
70011;BME280;59543;37.950;-122.338;2023-05-21T01:53:32;101663.53;;;16.62;71.10
70011;BME280;59543;37.950;-122.338;2023-05-21T01:55:58;101663.56;;;16.71;70.17
70011;BME280;59543;37.950;-122.338;2023-05-21T01:58:25;101662.44;;;16.39;71.37
70011;BME280;59543;37.950;-122.338;2023-05-21T02:00:52;101665.19;;;16.47;71.74
70011;BME280;59543;37.950;-122.338;2023-05-21T02:03:19;101661.66;;;16.63;72.09
70011;BME280;59543;37.950;-122.338;2023-05-21T02:05:46;101675.31;;;16.29;72.32
70011;BME280;59543;37.950;-122.338;2023-05-21T02:08:12;101668.06;;;16.03;73.29
70011;BME280;59543;37.950;-122.338;2023-05-21T02:10:39;101678.75;;;15.70;73.95
70011;BME280;59543;37.950;-122.338;2023-05-21T02:13:06;101671.56;;;15.43;75.53
70011;BME280;59543;37.950;-122.338;2023-05-21T02:15:32;101673.13;;;15.28;76.05
70011;BME280;59543;37.950;-122.338;2023-05-21T02:18:01;101678.25;;;15.13;77.30
70011;BME280;59543;37.950;-122.338;2023-05-21T02:20:29;101674.69;;;15.13;78.01
70011;BME280;59543;37.950;-122.338;2023-05-21T02:22:56;101675.00;;;15.27;76.71
70011;BME280;59543;37.950;-122.338;2023-05-21T02:25:22;101685.22;;;15.16;77.80
70011;BME280;59543;37.950;-122.338;2023-05-21T02:27:48;101689.78;;;14.79;79.94
70011;BME280;59543;37.950;-122.338;2023-05-21T02:30:18;101692.09;;;14.47;79.51
70011;BME280;59543;37.950;-122.338;2023-05-21T02:32:44;101691.19;;;14.66;79.21
70011;BME280;59543;37.950;-122.338;2023-05-21T02:35:13;101683.97;;;14.47;80.92
70011;BME280;59543;37.950;-122.338;2023-05-21T02:37:40;101683.91;;;14.66;79.97
70011;BME280;59543;37.950;-122.338;2023-05-21T02:40:07;101677.66;;;14.66;79.58
70011;BME280;59543;37.950;-122.338;2023-05-21T02:42:35;101682.88;;;14.67;79.41
70011;BME280;59543;37.950;-122.338;2023-05-21T02:45:11;101683.13;;;14.74;78.93
70011;BME280;59543;37.950;-122.338;2023-05-21T02:47:38;101689.41;;;14.47;79.30
70011;BME280;59543;37.950;-122.338;2023-05-21T02:50:06;101691.16;;;14.38;80.18
70011;BME280;59543;37.950;-122.338;2023-05-21T02:52:33;101691.81;;;14.22;80.83
70011;BME280;59543;37.950;-122.338;2023-05-21T02:54:59;101681.50;;;13.98;83.01
70011;BME280;59543;37.950;-122.338;2023-05-21T02:57:25;101682.59;;;14.15;82.62
70011;BME280;59543;37.950;-122.338;2023-05-21T02:59:52;101679.28;;;14.21;82.22
70011;BME280;59543;37.950;-122.338;2023-05-21T03:02:18;101682.91;;;14.12;82.82
70011;BME280;59543;37.950;-122.338;2023-05-21T03:04:44;101684.88;;;14.10;82.42
70011;BME280;59543;37.950;-122.338;2023-05-21T03:07:14;101671.41;;;14.00;82.73
70011;BME280;59543;37.950;-122.338;2023-05-21T03:09:42;101672.81;;;14.04;82.37
70011;BME280;59543;37.950;-122.338;2023-05-21T03:12:09;101671.00;;;13.95;83.25
70011;BME280;59543;37.950;-122.338;2023-05-21T03:14:35;101672.59;;;13.88;84.11
70011;BME280;59543;37.950;-122.338;2023-05-21T03:17:02;101674.31;;;13.79;84.84
70011;BME280;59543;37.950;-122.338;2023-05-21T03:19:33;101671.75;;;13.78;85.57
70011;BME280;59543;37.950;-122.338;2023-05-21T03:22:01;101671.81;;;13.58;86.31
70011;BME280;59543;37.950;-122.338;2023-05-21T03:24:28;101666.69;;;13.65;86.29
70011;BME280;59543;37.950;-122.338;2023-05-21T03:26:58;101670.41;;;13.64;86.75
70011;BME280;59543;37.950;-122.338;2023-05-21T03:29:26;101668.97;;;13.60;86.70
70011;BME280;59543;37.950;-122.338;2023-05-21T03:31:53;101673.72;;;13.48;87.67
70011;BME280;59543;37.950;-122.338;2023-05-21T03:34:19;101671.81;;;13.58;87.56
70011;BME280;59543;37.950;-122.338;2023-05-21T03:36:47;101671.69;;;13.50;87.94
70011;BME280;59543;37.950;-122.338;2023-05-21T03:39:13;101667.84;;;13.53;87.87
70011;BME280;59543;37.950;-122.338;2023-05-21T03:41:39;101665.69;;;13.56;88.09
70011;BME280;59543;37.950;-122.338;2023-05-21T03:44:06;101669.50;;;13.73;86.84
70011;BME280;59543;37.950;-122.338;2023-05-21T03:46:32;101673.53;;;13.69;86.79
70011;BME280;59543;37.950;-122.338;2023-05-21T03:48:58;101675.22;;;13.70;87.06
70011;BME280;59543;37.950;-122.338;2023-05-21T03:51:24;101677.50;;;13.65;87.66
70011;BME280;59543;37.950;-122.338;2023-05-21T03:53:52;101673.78;;;13.76;86.72
70011;BME280;59543;37.950;-122.338;2023-05-21T03:56:18;101674.03;;;13.82;86.77
70011;BME280;59543;37.950;-122.338;2023-05-21T03:58:44;101680.84;;;13.86;86.44
70011;BME280;59543;37.950;-122.338;2023-05-21T04:01:11;101675.72;;;13.83;86.39
70011;BME280;59543;37.950;-122.338;2023-05-21T04:03:37;101672.13;;;13.92;86.18
70011;BME280;59543;37.950;-122.338;2023-05-21T04:06:04;101682.28;;;13.90;86.09
70011;BME280;59543;37.950;-122.338;2023-05-21T04:08:30;101678.09;;;14.06;86.15
70011;BME280;59543;37.950;-122.338;2023-05-21T04:10:57;101684.47;;;14.05;85.78
70011;BME280;59543;37.950;-122.338;2023-05-21T04:13:23;101691.44;;;14.17;85.03
70011;BME280;59543;37.950;-122.338;2023-05-21T04:15:49;101681.63;;;14.06;85.61
70011;BME280;59543;37.950;-122.338;2023-05-21T04:18:15;101684.97;;;13.90;86.18
70011;BME280;59543;37.950;-122.338;2023-05-21T04:20:42;101690.72;;;14.15;85.15
70011;BME280;59543;37.950;-122.338;2023-05-21T04:23:09;101689.06;;;13.94;84.95
70011;BME280;59543;37.950;-122.338;2023-05-21T04:25:35;101683.84;;;13.93;85.01
70011;BME280;59543;37.950;-122.338;2023-05-21T04:28:01;101682.91;;;13.65;84.89
70011;BME280;59543;37.950;-122.338;2023-05-21T04:30:27;101684.34;;;13.69;85.27
70011;BME280;59543;37.950;-122.338;2023-05-21T04:32:54;101684.63;;;13.66;85.08
70011;BME280;59543;37.950;-122.338;2023-05-21T04:35:20;101690.47;;;13.61;86.27
70011;BME280;59543;37.950;-122.338;2023-05-21T04:37:48;101685.47;;;13.57;86.46
70011;BME280;59543;37.950;-122.338;2023-05-21T04:40:14;101692.13;;;13.82;84.96
70011;BME280;59543;37.950;-122.338;2023-05-21T04:42:44;101683.06;;;13.63;85.80
70011;BME280;59543;37.950;-122.338;2023-05-21T04:45:19;101692.03;;;13.44;86.61
70011;BME280;59543;37.950;-122.338;2023-05-21T04:47:45;101680.81;;;13.49;86.70
70011;BME280;59543;37.950;-122.338;2023-05-21T04:50:12;101683.25;;;13.42;87.21
70011;BME280;59543;37.950;-122.338;2023-05-21T04:52:39;101680.09;;;13.47;87.23
70011;BME280;59543;37.950;-122.338;2023-05-21T04:55:06;101676.84;;;13.43;87.18
70011;BME280;59543;37.950;-122.338;2023-05-21T04:57:32;101686.78;;;13.43;87.07
70011;BME280;59543;37.950;-122.338;2023-05-21T05:00:01;101684.97;;;13.34;87.27
70011;BME280;59543;37.950;-122.338;2023-05-21T05:02:30;101679.53;;;13.43;87.03
70011;BME280;59543;37.950;-122.338;2023-05-21T05:04:56;101686.22;;;13.20;88.24
70011;BME280;59543;37.950;-122.338;2023-05-21T05:07:24;101683.66;;;13.38;87.84
70011;BME280;59543;37.950;-122.338;2023-05-21T05:09:50;101688.06;;;13.10;88.82
70011;BME280;59543;37.950;-122.338;2023-05-21T05:12:16;101682.84;;;13.27;87.92
70011;BME280;59543;37.950;-122.338;2023-05-21T05:14:43;101687.66;;;13.34;88.29
70011;BME280;59543;37.950;-122.338;2023-05-21T05:17:09;101691.94;;;13.36;87.88
70011;BME280;59543;37.950;-122.338;2023-05-21T05:19:39;101687.78;;;13.32;88.24
70011;BME280;59543;37.950;-122.338;2023-05-21T05:22:06;101700.63;;;13.30;88.46
70011;BME280;59543;37.950;-122.338;2023-05-21T05:24:32;101693.06;;;13.24;88.97
70011;BME280;59543;37.950;-122.338;2023-05-21T05:26:58;101690.78;;;13.10;89.24
70011;BME280;59543;37.950;-122.338;2023-05-21T05:29:24;101695.88;;;13.13;89.43
70011;BME280;59543;37.950;-122.338;2023-05-21T05:31:50;101692.59;;;12.99;89.61
70011;BME280;59543;37.950;-122.338;2023-05-21T05:34:17;101691.91;;;12.97;90.19
70011;BME280;59543;37.950;-122.338;2023-05-21T05:36:44;101691.91;;;12.97;90.01
70011;BME280;59543;37.950;-122.338;2023-05-21T05:39:10;101688.91;;;12.81;91.17
70011;BME280;59543;37.950;-122.338;2023-05-21T05:41:36;101697.31;;;12.88;91.06
70011;BME280;59543;37.950;-122.338;2023-05-21T05:44:03;101696.44;;;12.77;91.86
70011;BME280;59543;37.950;-122.338;2023-05-21T05:46:29;101694.91;;;12.85;91.80
70011;BME280;59543;37.950;-122.338;2023-05-21T05:48:55;101699.56;;;12.82;91.35
70011;BME280;59543;37.950;-122.338;2023-05-21T05:51:21;101697.53;;;12.65;92.38
70011;BME280;59543;37.950;-122.338;2023-05-21T05:53:48;101696.97;;;12.71;92.23
70011;BME280;59543;37.950;-122.338;2023-05-21T05:56:14;101690.91;;;12.79;91.67
70011;BME280;59543;37.950;-122.338;2023-05-21T05:58:41;101695.84;;;12.74;91.96
70011;BME280;59543;37.950;-122.338;2023-05-21T06:01:08;101694.44;;;12.89;91.10
70011;BME280;59543;37.950;-122.338;2023-05-21T06:03:34;101693.88;;;12.86;91.18
70011;BME280;59543;37.950;-122.338;2023-05-21T06:06:00;101694.44;;;12.89;90.35
70011;BME280;59543;37.950;-122.338;2023-05-21T06:08:26;101690.59;;;12.72;91.35
70011;BME280;59543;37.950;-122.338;2023-05-21T06:10:53;101685.34;;;12.61;93.02
70011;BME280;59543;37.950;-122.338;2023-05-21T06:13:19;101686.00;;;12.53;93.63
70011;BME280;59543;37.950;-122.338;2023-05-21T06:15:45;101687.41;;;12.38;94.71
70011;BME280;59543;37.950;-122.338;2023-05-21T06:18:11;101679.47;;;12.37;96.07
70011;BME280;59543;37.950;-122.338;2023-05-21T06:20:38;101676.16;;;12.33;96.18
70011;BME280;59543;37.950;-122.338;2023-05-21T06:23:04;101677.56;;;12.27;96.80
70011;BME280;59543;37.950;-122.338;2023-05-21T06:25:31;101682.25;;;12.25;96.90
70011;BME280;59543;37.950;-122.338;2023-05-21T06:27:58;101688.78;;;12.23;96.79
70011;BME280;59543;37.950;-122.338;2023-05-21T06:30:24;101682.94;;;12.27;96.64
70011;BME280;59543;37.950;-122.338;2023-05-21T06:32:50;101690.81;;;12.30;95.86
70011;BME280;59543;37.950;-122.338;2023-05-21T06:35:17;101693.75;;;12.27;96.08
70011;BME280;59543;37.950;-122.338;2023-05-21T06:37:43;101697.53;;;12.15;96.78
70011;BME280;59543;37.950;-122.338;2023-05-21T06:40:09;101693.44;;;12.21;96.09
70011;BME280;59543;37.950;-122.338;2023-05-21T06:42:36;101698.78;;;12.01;97.24
70011;BME280;59543;37.950;-122.338;2023-05-21T06:45:02;101694.06;;;12.03;97.15
70011;BME280;59543;37.950;-122.338;2023-05-21T06:47:28;101694.94;;;12.04;97.26
70011;BME280;59543;37.950;-122.338;2023-05-21T06:49:55;101694.88;;;11.94;99.26
70011;BME280;59543;37.950;-122.338;2023-05-21T06:52:21;101689.56;;;11.83;100.00
70011;BME280;59543;37.950;-122.338;2023-05-21T06:54:47;101686.88;;;11.83;100.00
70011;BME280;59543;37.950;-122.338;2023-05-21T06:57:14;101694.50;;;11.78;100.00
70011;BME280;59543;37.950;-122.338;2023-05-21T06:59:41;101692.88;;;11.86;100.00
70011;BME280;59543;37.950;-122.338;2023-05-21T07:02:07;101690.22;;;11.75;100.00
70011;BME280;59543;37.950;-122.338;2023-05-21T07:04:33;101676.75;;;11.75;100.00
70011;BME280;59543;37.950;-122.338;2023-05-21T07:07:00;101681.28;;;11.75;100.00
70011;BME280;59543;37.950;-122.338;2023-05-21T07:09:29;101667.53;;;11.78;100.00
70011;BME280;59543;37.950;-122.338;2023-05-21T07:11:55;101670.47;;;11.86;100.00
70011;BME280;59543;37.950;-122.338;2023-05-21T07:14:24;101679.44;;;11.75;100.00
70011;BME280;59543;37.950;-122.338;2023-05-21T07:16:50;101675.69;;;11.66;100.00
70011;BME280;59543;37.950;-122.338;2023-05-21T07:19:17;101675.38;;;11.60;100.00
70011;BME280;59543;37.950;-122.338;2023-05-21T07:21:43;101678.84;;;11.72;100.00
70011;BME280;59543;37.950;-122.338;2023-05-21T07:24:09;101678.06;;;11.81;100.00
70011;BME280;59543;37.950;-122.338;2023-05-21T07:26:36;101675.63;;;11.78;100.00
70011;BME280;59543;37.950;-122.338;2023-05-21T07:29:02;101667.00;;;11.84;100.00
70011;BME280;59543;37.950;-122.338;2023-05-21T07:31:28;101661.03;;;11.80;100.00
70011;BME280;59543;37.950;-122.338;2023-05-21T07:33:54;101663.56;;;11.82;100.00
70011;BME280;59543;37.950;-122.338;2023-05-21T07:36:20;101662.38;;;11.86;100.00
70011;BME280;59543;37.950;-122.338;2023-05-21T07:38:47;101677.06;;;11.82;100.00
70011;BME280;59543;37.950;-122.338;2023-05-21T07:41:13;101669.25;;;11.79;100.00
70011;BME280;59543;37.950;-122.338;2023-05-21T07:43:39;101671.34;;;11.75;100.00
70011;BME280;59543;37.950;-122.338;2023-05-21T07:46:05;101668.47;;;11.67;100.00
70011;BME280;59543;37.950;-122.338;2023-05-21T07:48:32;101663.34;;;11.85;100.00
70011;BME280;59543;37.950;-122.338;2023-05-21T07:50:58;101656.50;;;11.81;99.83
70011;BME280;59543;37.950;-122.338;2023-05-21T07:53:25;101665.13;;;11.75;100.00
70011;BME280;59543;37.950;-122.338;2023-05-21T07:55:51;101662.09;;;11.68;100.00
70011;BME280;59543;37.950;-122.338;2023-05-21T07:58:17;101656.31;;;11.73;100.00
70011;BME280;59543;37.950;-122.338;2023-05-21T08:00:45;101654.66;;;11.81;100.00
70011;BME280;59543;37.950;-122.338;2023-05-21T08:03:16;101648.38;;;11.71;100.00
70011;BME280;59543;37.950;-122.338;2023-05-21T08:05:44;101653.44;;;11.64;100.00
70011;BME280;59543;37.950;-122.338;2023-05-21T08:08:17;101655.00;;;11.67;100.00
70011;BME280;59543;37.950;-122.338;2023-05-21T08:10:44;101642.28;;;11.79;100.00
70011;BME280;59543;37.950;-122.338;2023-05-21T08:13:11;101643.66;;;11.73;100.00
70011;BME280;59543;37.950;-122.338;2023-05-21T08:15:37;101633.84;;;11.62;100.00
70011;BME280;59543;37.950;-122.338;2023-05-21T08:18:04;101639.31;;;11.51;100.00
70011;BME280;59543;37.950;-122.338;2023-05-21T08:20:31;101643.03;;;11.60;100.00
70011;BME280;59543;37.950;-122.338;2023-05-21T08:22:58;101640.53;;;11.68;100.00
70011;BME280;59543;37.950;-122.338;2023-05-21T08:25:26;101635.16;;;11.68;100.00
70011;BME280;59543;37.950;-122.338;2023-05-21T08:27:52;101637.72;;;11.49;100.00
70011;BME280;59543;37.950;-122.338;2023-05-21T08:30:18;101636.03;;;11.48;100.00
70011;BME280;59543;37.950;-122.338;2023-05-21T08:32:45;101638.47;;;11.51;100.00
70011;BME280;59543;37.950;-122.338;2023-05-21T08:35:12;101622.50;;;11.59;100.00
70011;BME280;59543;37.950;-122.338;2023-05-21T08:37:38;101634.78;;;11.52;100.00
70011;BME280;59543;37.950;-122.338;2023-05-21T08:40:04;101627.69;;;11.51;100.00
70011;BME280;59543;37.950;-122.338;2023-05-21T08:42:45;101631.91;;;11.43;100.00
70011;BME280;59543;37.950;-122.338;2023-05-21T08:45:13;101621.25;;;11.42;100.00
70011;BME280;59543;37.950;-122.338;2023-05-21T08:47:43;101621.50;;;11.39;100.00
70011;BME280;59543;37.950;-122.338;2023-05-21T08:50:15;101627.75;;;11.39;100.00
70011;BME280;59543;37.950;-122.338;2023-05-21T08:52:42;101633.94;;;11.30;100.00
70011;BME280;59543;37.950;-122.338;2023-05-21T08:55:09;101635.50;;;11.33;100.00
70011;BME280;59543;37.950;-122.338;2023-05-21T08:57:35;101638.47;;;11.30;100.00
70011;BME280;59543;37.950;-122.338;2023-05-21T09:00:02;101634.59;;;11.23;100.00
70011;BME280;59543;37.950;-122.338;2023-05-21T09:02:33;101634.19;;;11.27;100.00
70011;BME280;59543;37.950;-122.338;2023-05-21T09:04:59;101637.09;;;11.35;100.00
70011;BME280;59543;37.950;-122.338;2023-05-21T09:07:28;101639.22;;;11.32;100.00
70011;BME280;59543;37.950;-122.338;2023-05-21T09:09:59;101640.16;;;11.31;100.00
70011;BME280;59543;37.950;-122.338;2023-05-21T09:12:27;101631.66;;;11.47;100.00
70011;BME280;59543;37.950;-122.338;2023-05-21T09:14:54;101630.72;;;11.36;100.00
70011;BME280;59543;37.950;-122.338;2023-05-21T09:17:23;101636.38;;;11.33;100.00
70011;BME280;59543;37.950;-122.338;2023-05-21T09:20:14;101631.72;;;11.35;100.00
70011;BME280;59543;37.950;-122.338;2023-05-21T09:22:45;101626.84;;;11.29;100.00
70011;BME280;59543;37.950;-122.338;2023-05-21T09:25:15;101624.75;;;11.33;100.00
70011;BME280;59543;37.950;-122.338;2023-05-21T09:27:44;101620.72;;;11.27;100.00
70011;BME280;59543;37.950;-122.338;2023-05-21T09:30:15;101624.09;;;11.19;100.00
70011;BME280;59543;37.950;-122.338;2023-05-21T09:32:43;101619.16;;;11.25;100.00
70011;BME280;59543;37.950;-122.338;2023-05-21T09:35:11;101621.06;;;11.34;100.00
70011;BME280;59543;37.950;-122.338;2023-05-21T09:37:42;101627.31;;;11.13;100.00
70011;BME280;59543;37.950;-122.338;2023-05-21T09:40:20;101619.09;;;11.15;100.00
70011;BME280;59543;37.950;-122.338;2023-05-21T09:42:51;101617.94;;;11.08;100.00
70011;BME280;59543;37.950;-122.338;2023-05-21T09:45:24;101616.56;;;11.13;100.00
70011;BME280;59543;37.950;-122.338;2023-05-21T09:47:52;101612.19;;;11.22;100.00
70011;BME280;59543;37.950;-122.338;2023-05-21T09:50:23;101616.72;;;11.21;100.00
70011;BME280;59543;37.950;-122.338;2023-05-21T09:52:50;101615.50;;;11.05;100.00
70011;BME280;59543;37.950;-122.338;2023-05-21T09:55:24;101612.97;;;11.13;100.00
70011;BME280;59543;37.950;-122.338;2023-05-21T09:57:52;101603.53;;;10.97;100.00
70011;BME280;59543;37.950;-122.338;2023-05-21T10:00:23;101609.97;;;11.06;100.00
70011;BME280;59543;37.950;-122.338;2023-05-21T10:02:56;101600.91;;;11.07;100.00
70011;BME280;59543;37.950;-122.338;2023-05-21T10:05:27;101603.66;;;11.17;100.00
70011;BME280;59543;37.950;-122.338;2023-05-21T10:07:58;101597.34;;;11.07;100.00
70011;BME280;59543;37.950;-122.338;2023-05-21T10:10:27;101604.78;;;11.14;100.00
70011;BME280;59543;37.950;-122.338;2023-05-21T10:13:09;101599.13;;;11.17;100.00
70011;BME280;59543;37.950;-122.338;2023-05-21T10:15:41;101594.28;;;11.11;100.00
70011;BME280;59543;37.950;-122.338;2023-05-21T10:18:12;101592.84;;;11.07;100.00
70011;BME280;59543;37.950;-122.338;2023-05-21T10:20:39;101591.59;;;11.11;100.00
70011;BME280;59543;37.950;-122.338;2023-05-21T10:23:06;101598.22;;;11.07;100.00
70011;BME280;59543;37.950;-122.338;2023-05-21T10:25:34;101599.41;;;11.14;100.00
70011;BME280;59543;37.950;-122.338;2023-05-21T10:28:01;101599.94;;;11.08;100.00
70011;BME280;59543;37.950;-122.338;2023-05-21T10:30:28;101599.50;;;11.13;100.00
70011;BME280;59543;37.950;-122.338;2023-05-21T10:32:55;101604.56;;;11.27;100.00
70011;BME280;59543;37.950;-122.338;2023-05-21T10:35:22;101603.91;;;11.35;100.00
70011;BME280;59543;37.950;-122.338;2023-05-21T10:37:48;101596.81;;;11.34;100.00
70011;BME280;59543;37.950;-122.338;2023-05-21T10:40:16;101599.72;;;11.21;100.00
70011;BME280;59543;37.950;-122.338;2023-05-21T10:46:04;101595.75;;;11.25;100.00
70011;BME280;59543;37.950;-122.338;2023-05-21T10:51:25;101598.13;;;11.39;100.00
70011;BME280;59543;37.950;-122.338;2023-05-21T10:54:19;101604.63;;;11.37;100.00
70011;BME280;59543;37.950;-122.338;2023-05-21T10:59:47;101607.47;;;11.35;100.00
70011;BME280;59543;37.950;-122.338;2023-05-21T11:02:15;101606.03;;;11.31;100.00
70011;BME280;59543;37.950;-122.338;2023-05-21T11:04:46;101606.72;;;11.33;100.00
70011;BME280;59543;37.950;-122.338;2023-05-21T11:07:16;101598.06;;;11.30;100.00
70011;BME280;59543;37.950;-122.338;2023-05-21T11:09:49;101602.47;;;11.31;100.00
70011;BME280;59543;37.950;-122.338;2023-05-21T11:12:15;101599.50;;;11.34;100.00
70011;BME280;59543;37.950;-122.338;2023-05-21T11:14:55;101597.41;;;11.37;100.00
70011;BME280;59543;37.950;-122.338;2023-05-21T11:17:40;101590.50;;;11.44;100.00
70011;BME280;59543;37.950;-122.338;2023-05-21T11:20:12;101587.50;;;11.38;100.00
70011;BME280;59543;37.950;-122.338;2023-05-21T11:22:39;101587.56;;;11.57;100.00
70011;BME280;59543;37.950;-122.338;2023-05-21T11:25:06;101591.06;;;11.48;100.00
70011;BME280;59543;37.950;-122.338;2023-05-21T11:27:36;101590.41;;;11.56;100.00
70011;BME280;59543;37.950;-122.338;2023-05-21T11:32:31;101597.31;;;11.49;100.00
70011;BME280;59543;37.950;-122.338;2023-05-21T11:34:59;101594.53;;;11.60;100.00
70011;BME280;59543;37.950;-122.338;2023-05-21T11:37:30;101592.72;;;11.39;100.00
70011;BME280;59543;37.950;-122.338;2023-05-21T11:40:24;101588.81;;;11.43;100.00
70011;BME280;59543;37.950;-122.338;2023-05-21T11:42:52;101590.50;;;11.44;100.00
70011;BME280;59543;37.950;-122.338;2023-05-21T11:45:21;101583.53;;;11.42;100.00
70011;BME280;59543;37.950;-122.338;2023-05-21T11:47:48;101579.41;;;11.38;100.00
70011;BME280;59543;37.950;-122.338;2023-05-21T11:50:15;101574.41;;;11.33;100.00
70011;BME280;59543;37.950;-122.338;2023-05-21T11:52:42;101571.34;;;11.38;100.00
70011;BME280;59543;37.950;-122.338;2023-05-21T11:55:09;101575.13;;;11.35;100.00
70011;BME280;59543;37.950;-122.338;2023-05-21T11:57:36;101566.06;;;11.36;100.00
70011;BME280;59543;37.950;-122.338;2023-05-21T12:00:11;101570.28;;;11.29;100.00
70011;BME280;59543;37.950;-122.338;2023-05-21T12:02:42;101562.59;;;11.25;100.00
70011;BME280;59543;37.950;-122.338;2023-05-21T12:05:09;101564.31;;;11.26;100.00
70011;BME280;59543;37.950;-122.338;2023-05-21T12:07:35;101568.66;;;11.17;100.00
70011;BME280;59543;37.950;-122.338;2023-05-21T12:10:01;101570.59;;;11.36;100.00
70011;BME280;59543;37.950;-122.338;2023-05-21T12:12:28;101568.75;;;11.36;100.00
70011;BME280;59543;37.950;-122.338;2023-05-21T12:14:54;101563.91;;;11.30;100.00
70011;BME280;59543;37.950;-122.338;2023-05-21T12:17:22;101567.78;;;11.37;100.00
70011;BME280;59543;37.950;-122.338;2023-05-21T12:19:50;101565.22;;;11.36;100.00
70011;BME280;59543;37.950;-122.338;2023-05-21T12:22:17;101568.94;;;11.44;100.00
70011;BME280;59543;37.950;-122.338;2023-05-21T12:24:45;101567.63;;;11.39;100.00
70011;BME280;59543;37.950;-122.338;2023-05-21T12:27:13;101569.97;;;11.53;100.00
70011;BME280;59543;37.950;-122.338;2023-05-21T12:29:47;101566.72;;;11.50;100.00
70011;BME280;59543;37.950;-122.338;2023-05-21T12:32:15;101563.69;;;11.43;100.00